createdAt,value
2022-08-31T00:03:55.278Z,9.30
2022-08-31T00:08:57.096Z,8.90
2022-08-31T00:14:00.317Z,9.20
2022-08-31T00:19:02.139Z,9.10
2022-08-31T00:24:04.038Z,7.70
2022-08-31T00:29:05.936Z,8.80
2022-08-31T00:34:07.936Z,8.70
2022-08-31T00:39:09.771Z,8.30
2022-08-31T00:44:11.940Z,7.60
2022-08-31T00:49:22.012Z,9.70
2022-08-31T00:54:25.987Z,10.10
2022-08-31T00:59:27.888Z,9.10
2022-08-31T01:04:30.465Z,8.90
2022-08-31T01:09:33.613Z,10.60
2022-08-31T01:14:36.769Z,10.10
2022-08-31T01:19:40.747Z,9.50
2022-08-31T01:24:44.984Z,10.00
2022-08-31T01:29:46.855Z,9.20
2022-08-31T01:34:48.744Z,9.60
2022-08-31T01:39:55.621Z,11.50
2022-08-31T01:44:57.536Z,11.00
2022-08-31T01:49:59.401Z,10.30
2022-08-31T01:55:03.610Z,10.00
2022-08-31T02:00:07.647Z,9.30
2022-08-31T02:05:18.549Z,10.80
2022-08-31T02:10:20.511Z,9.80
2022-08-31T02:15:22.414Z,11.00
2022-08-31T02:20:24.325Z,8.90
2022-08-31T02:25:26.276Z,9.50
2022-08-31T02:30:28.887Z,9.50
2022-08-31T02:35:39.170Z,9.00
2022-08-31T02:40:41.663Z,9.70
2022-08-31T02:45:44.708Z,9.20
2022-08-31T02:51:05.960Z,8.20
2022-08-31T02:56:08.500Z,8.80
2022-08-31T03:01:10.564Z,8.30
2022-08-31T03:06:13.660Z,9.60
2022-08-31T03:11:16.643Z,8.90
2022-08-31T03:16:18.622Z,9.20
2022-08-31T03:21:21.960Z,9.40
2022-08-31T03:26:24.457Z,8.10
2022-08-31T03:31:27.383Z,7.90
2022-08-31T03:36:29.978Z,8.70
2022-08-31T03:41:32.324Z,8.80
2022-08-31T03:46:34.698Z,9.50
2022-08-31T03:51:36.739Z,8.80
2022-08-31T03:56:40.009Z,14.80
2022-08-31T04:01:41.954Z,10.60
2022-08-31T04:07:02.447Z,10.80
2022-08-31T04:12:23.044Z,14.50
2022-08-31T04:17:39.760Z,15.90
2022-08-31T04:22:57.536Z,12.30
2022-08-31T04:28:09.324Z,11.50
2022-08-31T04:33:26.461Z,10.70
2022-08-31T04:38:31.364Z,11.00
2022-08-31T04:43:33.699Z,9.20
2022-08-31T04:48:35.701Z,9.70
2022-08-31T04:53:38.297Z,9.30
2022-08-31T04:58:44.269Z,8.60
2022-08-31T05:03:52.268Z,9.90
2022-08-31T05:08:55.452Z,10.00
2022-08-31T05:13:58.856Z,10.40
2022-08-31T05:19:02.265Z,8.30
2022-08-31T05:24:05.781Z,8.80
2022-08-31T05:29:08.951Z,10.70
2022-08-31T05:34:15.092Z,8.30
2022-08-31T05:39:18.484Z,8.50
2022-08-31T05:44:23.444Z,7.90
2022-08-31T05:49:32.259Z,7.70
2022-08-31T05:54:35.496Z,7.80
2022-08-31T05:59:38.988Z,7.20
2022-08-31T06:04:41.123Z,7.10
2022-08-31T06:09:43.081Z,7.00
2022-08-31T06:14:48.904Z,7.70
2022-08-31T06:19:53.909Z,6.70
2022-08-31T06:24:59.066Z,6.70
2022-08-31T06:30:02.215Z,6.60
2022-08-31T06:35:09.659Z,6.30
2022-08-31T06:40:30.288Z,6.80
2022-08-31T06:45:50.883Z,7.50
2022-08-31T06:51:19.588Z,9.60
2022-08-31T06:56:23.131Z,13.50
2022-08-31T07:01:45.145Z,14.20
2022-08-31T07:06:55.550Z,9.30
2022-08-31T07:11:58.071Z,8.70
2022-08-31T07:17:03.235Z,7.80
2022-08-31T07:22:07.119Z,7.40
2022-08-31T07:27:12.069Z,5.40
2022-08-31T07:32:19.969Z,5.10
2022-08-31T07:37:51.047Z,5.00
2022-08-31T07:42:59.947Z,4.90
2022-08-31T07:48:03.481Z,6.50
2022-08-31T07:53:19.431Z,5.30
2022-08-31T07:58:50.241Z,6.00
2022-08-31T08:03:53.655Z,4.70
2022-08-31T08:09:25.714Z,4.40
2022-08-31T08:14:39.950Z,4.30
2022-08-31T08:20:11.638Z,3.50
2022-08-31T08:25:17.242Z,3.50
2022-08-31T08:31:03.268Z,4.00
2022-08-31T08:36:10.226Z,3.00
2022-08-31T08:41:15.629Z,2.80
2022-08-31T08:46:34.387Z,2.70
2022-08-31T08:51:49.076Z,2.40
2022-08-31T08:56:51.743Z,2.30
2022-08-31T09:02:07.167Z,2.70
2022-08-31T09:12:23.194Z,2.70
2022-08-31T09:17:29.199Z,2.20
2022-08-31T09:27:45.987Z,2.20
2022-08-31T09:32:57.311Z,2.70
2022-08-31T09:38:07.154Z,2.90
2022-08-31T09:43:17.698Z,2.70
2022-08-31T09:48:49.966Z,2.50
2022-08-31T09:54:10.988Z,2.00
2022-08-31T09:59:12.795Z,1.80
2022-08-31T10:04:18.164Z,1.70
2022-08-31T10:09:38.604Z,2.00
2022-08-31T10:14:43.804Z,1.80
2022-08-31T10:19:54.788Z,2.50
2022-08-31T10:25:32.796Z,2.60
2022-08-31T10:30:38.922Z,3.30
2022-08-31T10:35:45.008Z,2.00
2022-08-31T10:40:51.720Z,2.30
2022-08-31T10:45:54.104Z,2.80
2022-08-31T10:51:06.009Z,3.00
2022-08-31T10:56:14.601Z,2.80
2022-08-31T11:01:22.500Z,2.80
2022-08-31T11:06:36.088Z,2.80
2022-08-31T11:11:43.948Z,2.50
2022-08-31T11:16:49.678Z,2.60
2022-08-31T11:21:57.886Z,5.30
2022-08-31T11:27:04.138Z,2.80
2022-08-31T11:37:07.897Z,1.80
2022-08-31T11:42:12.719Z,2.30
2022-08-31T11:47:29.604Z,1.90
2022-08-31T11:52:38.641Z,1.80
2022-08-31T11:58:06.526Z,2.10
2022-08-31T12:03:09.786Z,2.50
2022-08-31T12:08:15.449Z,2.30
2022-08-31T12:13:24.243Z,2.90
2022-08-31T12:18:44.537Z,2.50
2022-08-31T12:23:49.134Z,2.50
2022-08-31T12:28:54.209Z,2.20
2022-08-31T12:33:59.514Z,1.90
2022-08-31T12:39:08.266Z,1.90
2022-08-31T12:44:14.225Z,2.20
2022-08-31T12:49:36.602Z,2.60
2022-08-31T12:54:44.455Z,2.30
2022-08-31T13:00:03.366Z,2.10
2022-08-31T13:05:33.485Z,1.90
2022-08-31T13:10:49.046Z,1.80
2022-08-31T13:15:51.569Z,1.40
2022-08-31T13:20:56.327Z,2.00
2022-08-31T13:26:01.565Z,1.40
2022-08-31T13:31:05.180Z,1.90
2022-08-31T13:36:09.943Z,1.40
2022-08-31T13:41:18.361Z,2.10
2022-08-31T13:46:37.670Z,1.60
2022-08-31T13:51:45.703Z,1.80
2022-08-31T13:56:57.708Z,1.10
2022-08-31T14:02:05.830Z,1.50
2022-08-31T14:07:13.834Z,2.00
2022-08-31T14:12:22.139Z,2.30
2022-08-31T14:17:25.292Z,2.30
2022-08-31T14:22:29.239Z,2.10
2022-08-31T14:27:39.255Z,2.20
2022-08-31T14:32:45.840Z,1.20
2022-08-31T14:37:47.646Z,1.90
2022-08-31T14:42:49.611Z,2.00
2022-08-31T14:47:52.625Z,1.80
2022-08-31T14:53:17.505Z,1.80
2022-08-31T14:58:34.325Z,1.20
2022-08-31T15:03:38.414Z,2.40
2022-08-31T15:08:41.323Z,1.60
2022-08-31T15:13:43.288Z,2.20
2022-08-31T15:18:45.594Z,2.70
2022-08-31T15:23:51.014Z,2.40
2022-08-31T15:28:52.957Z,2.80
2022-08-31T15:33:57.652Z,2.70
2022-08-31T15:39:00.157Z,2.90
2022-08-31T15:44:17.513Z,2.30
2022-08-31T15:49:53.505Z,2.30
2022-08-31T15:54:58.728Z,2.60
2022-08-31T16:00:00.779Z,3.30
2022-08-31T16:05:03.420Z,4.30
2022-08-31T16:10:15.628Z,2.80
2022-08-31T16:15:24.888Z,3.30
2022-08-31T16:20:47.503Z,2.60
2022-08-31T16:25:51.261Z,3.60
2022-08-31T16:30:53.171Z,3.00
2022-08-31T16:35:55.021Z,2.70
2022-08-31T16:41:00.987Z,2.50
2022-08-31T16:46:18.894Z,3.80
2022-08-31T16:51:26.296Z,2.90
2022-08-31T16:56:29.775Z,2.70
2022-08-31T17:01:33.185Z,2.90
2022-08-31T17:06:35.747Z,3.30
2022-08-31T17:11:48.749Z,3.70
2022-08-31T17:16:50.834Z,3.10
2022-08-31T17:21:53.150Z,3.00
2022-08-31T17:26:59.683Z,2.50
2022-08-31T17:32:03.021Z,3.30
2022-08-31T17:37:07.743Z,3.00
2022-08-31T17:42:10.142Z,3.10
2022-08-31T17:47:13.063Z,3.50
2022-08-31T17:52:14.955Z,3.10
2022-08-31T17:57:17.722Z,3.00
2022-08-31T18:02:21.989Z,3.70
2022-08-31T18:07:23.857Z,4.30
2022-08-31T18:12:25.836Z,3.70
2022-08-31T18:17:34.500Z,4.20
2022-08-31T18:22:52.334Z,4.10
2022-08-31T18:27:56.286Z,3.90
2022-08-31T18:33:00.935Z,4.10
2022-08-31T18:38:02.997Z,3.60
2022-08-31T18:43:24.500Z,3.50
2022-08-31T18:48:30.047Z,3.80
2022-08-31T18:53:34.758Z,4.50
2022-08-31T18:58:37.470Z,3.50
2022-08-31T19:03:39.719Z,3.80
2022-08-31T19:08:41.718Z,3.90
2022-08-31T19:13:46.505Z,4.00
2022-08-31T19:18:48.854Z,3.30
2022-08-31T19:24:02.684Z,3.90
2022-08-31T19:29:09.506Z,3.70
2022-08-31T19:34:12.512Z,4.80
2022-08-31T19:39:16.677Z,4.00
2022-08-31T19:44:18.753Z,4.80
2022-08-31T19:49:21.005Z,4.20
2022-08-31T19:54:24.340Z,5.40
2022-08-31T19:59:27.017Z,5.20
2022-08-31T20:04:29.911Z,4.70
2022-08-31T20:09:32.323Z,3.90
2022-08-31T20:14:35.406Z,4.20
2022-08-31T20:19:39.550Z,4.80
2022-08-31T20:24:43.582Z,5.20
2022-08-31T20:29:45.904Z,4.90
2022-08-31T20:34:49.925Z,4.70
2022-08-31T20:39:52.289Z,4.40
2022-08-31T20:44:55.599Z,4.70
2022-08-31T20:50:14.598Z,4.70
2022-08-31T20:55:29.935Z,4.50
2022-08-31T21:00:32.958Z,5.50
2022-08-31T21:05:38.303Z,5.80
2022-08-31T21:10:40.504Z,5.80
2022-08-31T21:15:44.249Z,5.80
2022-08-31T21:20:47.132Z,5.80
2022-08-31T21:25:49.114Z,6.40
2022-08-31T21:30:53.194Z,6.10
2022-08-31T21:36:06.415Z,6.20
2022-08-31T21:41:09.077Z,5.00
2022-08-31T21:46:13.649Z,5.20
2022-08-31T21:51:32.235Z,6.10
2022-08-31T21:56:38.363Z,5.40
2022-08-31T22:01:42.329Z,5.50
2022-08-31T22:06:44.677Z,6.10
2022-08-31T22:11:50.854Z,4.40
2022-08-31T22:16:53.655Z,4.50
2022-08-31T22:21:56.678Z,4.60
2022-08-31T22:26:59.834Z,5.20
2022-08-31T22:32:03.955Z,4.80
2022-08-31T22:37:06.162Z,5.30
2022-08-31T22:42:09.137Z,5.10
2022-08-31T22:47:11.163Z,4.50
2022-08-31T22:52:17.113Z,4.60
2022-08-31T22:57:19.575Z,4.70
2022-08-31T23:02:21.604Z,5.60
2022-08-31T23:07:23.826Z,4.70
2022-08-31T23:12:25.977Z,5.50
2022-08-31T23:17:27.753Z,4.50
2022-08-31T23:22:29.934Z,5.70
2022-08-31T23:27:32.972Z,5.40
2022-08-31T23:32:35.943Z,5.30
2022-08-31T23:37:38.163Z,5.30
2022-08-31T23:42:41.314Z,6.50
2022-08-31T23:47:43.214Z,5.60
2022-08-31T23:52:46.115Z,5.60
2022-08-31T23:57:50.162Z,5.30
